sensor_id;sensor_type;location;lat;lon;timestamp;pressure;altitude;pressure_sealevel;temperature;humidity
35892;BME280;21993;42.672;23.296;2023-05-22T00:01:31;94482.50;;;17.32;63.71
35892;BME280;21993;42.672;23.296;2023-05-22T00:03:57;94480.25;;;17.21;63.91
35892;BME280;21993;42.672;23.296;2023-05-22T00:06:22;94474.25;;;17.27;64.03
35892;BME280;21993;42.672;23.296;2023-05-22T00:08:48;94479.25;;;17.22;64.01
35892;BME280;21993;42.672;23.296;2023-05-22T00:11:13;94470.94;;;17.25;63.89
35892;BME280;21993;42.672;23.296;2023-05-22T00:13:39;94475.59;;;17.23;64.08
35892;BME280;21993;42.672;23.296;2023-05-22T00:16:05;94479.44;;;17.21;64.46
35892;BME280;21993;42.672;23.296;2023-05-22T00:18:30;94475.06;;;17.28;64.25
35892;BME280;21993;42.672;23.296;2023-05-22T00:20:56;94475.69;;;17.30;64.12
35892;BME280;21993;42.672;23.296;2023-05-22T00:23:23;94477.28;;;17.24;64.27
35892;BME280;21993;42.672;23.296;2023-05-22T00:25:49;94478.63;;;17.20;64.31
35892;BME280;21993;42.672;23.296;2023-05-22T00:28:14;94476.78;;;17.21;64.35
35892;BME280;21993;42.672;23.296;2023-05-22T00:30:40;94475.78;;;17.22;64.68
35892;BME280;21993;42.672;23.296;2023-05-22T00:33:05;94478.25;;;17.23;64.21
35892;BME280;21993;42.672;23.296;2023-05-22T00:35:31;94481.09;;;17.22;64.75
35892;BME280;21993;42.672;23.296;2023-05-22T00:37:57;94472.78;;;17.25;64.37
35892;BME280;21993;42.672;23.296;2023-05-22T00:40:22;94473.31;;;17.20;64.39
35892;BME280;21993;42.672;23.296;2023-05-22T00:42:48;94481.91;;;17.22;64.54
35892;BME280;21993;42.672;23.296;2023-05-22T00:45:13;94478.34;;;17.30;64.45
35892;BME280;21993;42.672;23.296;2023-05-22T00:47:40;94480.66;;;17.33;63.92
35892;BME280;21993;42.672;23.296;2023-05-22T00:50:06;94477.72;;;17.28;64.24
35892;BME280;21993;42.672;23.296;2023-05-22T00:52:37;94482.63;;;17.31;64.12
35892;BME280;21993;42.672;23.296;2023-05-22T00:55:02;94482.84;;;17.29;63.95
35892;BME280;21993;42.672;23.296;2023-05-22T00:57:29;94478.72;;;17.27;63.93
35892;BME280;21993;42.672;23.296;2023-05-22T00:59:55;94480.19;;;17.29;64.17
35892;BME280;21993;42.672;23.296;2023-05-22T01:02:20;94473.78;;;17.24;64.17
35892;BME280;21993;42.672;23.296;2023-05-22T01:04:47;94475.59;;;17.23;64.09
35892;BME280;21993;42.672;23.296;2023-05-22T01:07:13;94470.13;;;17.25;64.10
35892;BME280;21993;42.672;23.296;2023-05-22T01:09:38;94474.63;;;17.24;64.13
35892;BME280;21993;42.672;23.296;2023-05-22T01:14:52;94472.31;;;17.21;64.29
35892;BME280;21993;42.672;23.296;2023-05-22T01:20:31;94472.88;;;17.16;64.72
35892;BME280;21993;42.672;23.296;2023-05-22T01:31:16;94471.56;;;17.12;64.94
35892;BME280;21993;42.672;23.296;2023-05-22T01:34:02;94469.09;;;17.11;64.89
35892;BME280;21993;42.672;23.296;2023-05-22T01:36:30;94468.09;;;17.12;64.90
35892;BME280;21993;42.672;23.296;2023-05-22T01:38:59;94466.06;;;17.14;64.61
35892;BME280;21993;42.672;23.296;2023-05-22T01:41:28;94464.31;;;17.06;64.97
35892;BME280;21993;42.672;23.296;2023-05-22T01:43:53;94460.97;;;17.12;64.51
35892;BME280;21993;42.672;23.296;2023-05-22T01:46:18;94467.47;;;17.10;64.56
35892;BME280;21993;42.672;23.296;2023-05-22T01:48:44;94466.00;;;17.07;65.08
35892;BME280;21993;42.672;23.296;2023-05-22T01:51:19;94453.56;;;17.08;64.60
35892;BME280;21993;42.672;23.296;2023-05-22T01:53:56;94464.31;;;17.06;64.71
35892;BME280;21993;42.672;23.296;2023-05-22T01:56:33;94470.19;;;17.02;65.04
35892;BME280;21993;42.672;23.296;2023-05-22T02:02:06;94468.88;;;16.98;65.30
35892;BME280;21993;42.672;23.296;2023-05-22T02:04:37;94466.41;;;16.96;65.18
35892;BME280;21993;42.672;23.296;2023-05-22T02:07:04;94466.78;;;16.93;65.19
35892;BME280;21993;42.672;23.296;2023-05-22T02:09:31;94466.78;;;16.93;65.29
35892;BME280;21993;42.672;23.296;2023-05-22T02:11:58;94456.56;;;16.90;65.31
35892;BME280;21993;42.672;23.296;2023-05-22T02:14:24;94470.44;;;16.92;65.51
35892;BME280;21993;42.672;23.296;2023-05-22T02:16:51;94467.50;;;16.87;65.40
35892;BME280;21993;42.672;23.296;2023-05-22T02:19:16;94459.28;;;16.82;65.89
35892;BME280;21993;42.672;23.296;2023-05-22T02:21:42;94461.75;;;16.83;65.37
35892;BME280;21993;42.672;23.296;2023-05-22T02:24:08;94469.03;;;16.81;65.81
35892;BME280;21993;42.672;23.296;2023-05-22T02:26:33;94473.44;;;16.74;65.61
35892;BME280;21993;42.672;23.296;2023-05-22T02:28:59;94472.59;;;16.74;66.02
35892;BME280;21993;42.672;23.296;2023-05-22T02:31:25;94466.13;;;16.76;66.08
35892;BME280;21993;42.672;23.296;2023-05-22T02:33:50;94466.00;;;16.70;66.63
35892;BME280;21993;42.672;23.296;2023-05-22T02:36:16;94466.34;;;16.67;66.52
35892;BME280;21993;42.672;23.296;2023-05-22T02:38:41;94461.09;;;16.58;66.51
35892;BME280;21993;42.672;23.296;2023-05-22T02:41:07;94462.13;;;16.57;66.52
35892;BME280;21993;42.672;23.296;2023-05-22T02:43:32;94467.63;;;16.48;67.05
35892;BME280;21993;42.672;23.296;2023-05-22T02:45:58;94465.16;;;16.46;67.06
35892;BME280;21993;42.672;23.296;2023-05-22T02:48:23;94462.06;;;16.43;67.49
35892;BME280;21993;42.672;23.296;2023-05-22T02:50:49;94459.59;;;16.41;67.13
35892;BME280;21993;42.672;23.296;2023-05-22T02:53:14;94461.41;;;16.41;67.49
35892;BME280;21993;42.672;23.296;2023-05-22T02:55:41;94461.94;;;16.36;67.38
35892;BME280;21993;42.672;23.296;2023-05-22T02:58:08;94455.19;;;16.33;67.53
35892;BME280;21993;42.672;23.296;2023-05-22T03:00:37;94455.69;;;16.29;67.63
35892;BME280;21993;42.672;23.296;2023-05-22T03:03:03;94449.94;;;16.25;67.60
35892;BME280;21993;42.672;23.296;2023-05-22T03:05:29;94452.75;;;16.24;67.41
35892;BME280;21993;42.672;23.296;2023-05-22T03:07:55;94455.22;;;16.25;67.56
35892;BME280;21993;42.672;23.296;2023-05-22T03:10:21;94468.81;;;16.22;67.99
35892;BME280;21993;42.672;23.296;2023-05-22T03:12:47;94449.81;;;16.19;68.03
35892;BME280;21993;42.672;23.296;2023-05-22T03:15:12;94453.28;;;16.19;67.91
35892;BME280;21993;42.672;23.296;2023-05-22T03:17:38;94461.59;;;16.16;68.17
35892;BME280;21993;42.672;23.296;2023-05-22T03:20:03;94471.88;;;16.11;68.16
35892;BME280;21993;42.672;23.296;2023-05-22T03:22:29;94454.50;;;16.09;68.20
35892;BME280;21993;42.672;23.296;2023-05-22T03:24:55;94467.75;;;16.09;67.73
35892;BME280;21993;42.672;23.296;2023-05-22T03:27:20;94460.31;;;16.04;68.24
35892;BME280;21993;42.672;23.296;2023-05-22T03:29:46;94457.84;;;16.02;68.28
35892;BME280;21993;42.672;23.296;2023-05-22T03:32:11;94456.84;;;16.03;68.56
35892;BME280;21993;42.672;23.296;2023-05-22T03:34:36;94459.69;;;16.02;68.82
35892;BME280;21993;42.672;23.296;2023-05-22T03:37:02;94468.81;;;15.99;68.75
35892;BME280;21993;42.672;23.296;2023-05-22T03:39:27;94461.03;;;15.98;68.71
35892;BME280;21993;42.672;23.296;2023-05-22T03:41:53;94462.19;;;15.95;68.81
35892;BME280;21993;42.672;23.296;2023-05-22T03:44:18;94465.03;;;15.94;68.82
35892;BME280;21993;42.672;23.296;2023-05-22T03:46:43;94468.00;;;15.99;68.42
35892;BME280;21993;42.672;23.296;2023-05-22T03:49:10;94470.50;;;15.92;68.82
35892;BME280;21993;42.672;23.296;2023-05-22T03:51:35;94468.22;;;15.89;69.21
35892;BME280;21993;42.672;23.296;2023-05-22T03:54:01;94464.19;;;15.93;69.06
35892;BME280;21993;42.672;23.296;2023-05-22T03:56:26;94464.56;;;15.90;69.12
35892;BME280;21993;42.672;23.296;2023-05-22T03:58:51;94463.38;;;15.93;69.22
35892;BME280;21993;42.672;23.296;2023-05-22T04:01:17;94470.69;;;15.91;69.04
35892;BME280;21993;42.672;23.296;2023-05-22T04:03:42;94473.97;;;15.93;68.90
35892;BME280;21993;42.672;23.296;2023-05-22T04:06:08;94474.47;;;15.88;69.52
35892;BME280;21993;42.672;23.296;2023-05-22T04:08:35;94476.31;;;15.88;69.69
35892;BME280;21993;42.672;23.296;2023-05-22T04:11:00;94481.44;;;15.89;69.50
35892;BME280;21993;42.672;23.296;2023-05-22T04:13:27;94472.97;;;15.94;69.74
35892;BME280;21993;42.672;23.296;2023-05-22T04:15:55;94467.50;;;15.95;69.93
35892;BME280;21993;42.672;23.296;2023-05-22T04:18:20;94471.97;;;15.95;69.81
35892;BME280;21993;42.672;23.296;2023-05-22T04:20:46;94477.25;;;15.95;70.01
35892;BME280;21993;42.672;23.296;2023-05-22T04:23:11;94471.50;;;15.91;70.30
35892;BME280;21993;42.672;23.296;2023-05-22T04:25:37;94471.97;;;15.95;70.18
35892;BME280;21993;42.672;23.296;2023-05-22T04:28:03;94474.09;;;15.99;70.05
35892;BME280;21993;42.672;23.296;2023-05-22T04:30:31;94478.41;;;16.00;70.46
35892;BME280;21993;42.672;23.296;2023-05-22T04:32:58;94476.22;;;16.04;70.02
35892;BME280;21993;42.672;23.296;2023-05-22T04:35:24;94476.69;;;16.08;69.46
35892;BME280;21993;42.672;23.296;2023-05-22T04:37:49;94482.00;;;16.08;70.15
35892;BME280;21993;42.672;23.296;2023-05-22T04:40:15;94487.13;;;16.09;70.36
35892;BME280;21993;42.672;23.296;2023-05-22T04:42:42;94485.75;;;16.13;70.19
35892;BME280;21993;42.672;23.296;2023-05-22T04:45:08;94483.94;;;16.14;70.12
35892;BME280;21993;42.672;23.296;2023-05-22T04:47:34;94484.94;;;16.13;70.01
35892;BME280;21993;42.672;23.296;2023-05-22T04:50:02;94486.88;;;16.19;70.28
35892;BME280;21993;42.672;23.296;2023-05-22T04:52:28;94487.75;;;16.11;70.43
35892;BME280;21993;42.672;23.296;2023-05-22T04:54:53;94494.56;;;16.05;71.06
35892;BME280;21993;42.672;23.296;2023-05-22T04:57:20;94481.78;;;16.17;69.79
35892;BME280;21993;42.672;23.296;2023-05-22T04:59:46;94486.47;;;16.07;70.24
35892;BME280;21993;42.672;23.296;2023-05-22T05:02:12;94484.09;;;16.12;70.19
35892;BME280;21993;42.672;23.296;2023-05-22T05:04:38;94479.13;;;16.17;69.79
35892;BME280;21993;42.672;23.296;2023-05-22T05:07:03;94487.84;;;16.26;69.46
35892;BME280;21993;42.672;23.296;2023-05-22T05:09:30;94492.13;;;16.27;69.27
35892;BME280;21993;42.672;23.296;2023-05-22T05:11:55;94490.06;;;16.37;69.20
35892;BME280;21993;42.672;23.296;2023-05-22T05:14:22;94488.72;;;16.41;69.05
35892;BME280;21993;42.672;23.296;2023-05-22T05:16:48;94496.13;;;16.46;69.04
35892;BME280;21993;42.672;23.296;2023-05-22T05:19:18;94497.38;;;16.58;68.62
35892;BME280;21993;42.672;23.296;2023-05-22T05:21:47;94490.53;;;16.64;68.53
35892;BME280;21993;42.672;23.296;2023-05-22T05:24:14;94499.97;;;16.66;69.02
35892;BME280;21993;42.672;23.296;2023-05-22T05:26:40;94488.66;;;16.72;68.52
35892;BME280;21993;42.672;23.296;2023-05-22T05:29:05;94492.25;;;16.79;68.19
35892;BME280;21993;42.672;23.296;2023-05-22T05:31:30;94494.81;;;17.10;67.04
35892;BME280;21993;42.672;23.296;2023-05-22T05:33:57;94493.16;;;17.09;66.89
35892;BME280;21993;42.672;23.296;2023-05-22T05:36:23;94498.47;;;17.09;66.63
35892;BME280;21993;42.672;23.296;2023-05-22T05:38:49;94488.03;;;17.23;66.52
35892;BME280;21993;42.672;23.296;2023-05-22T05:41:14;94501.78;;;17.41;65.11
35892;BME280;21993;42.672;23.296;2023-05-22T05:43:40;94491.81;;;17.43;66.05
35892;BME280;21993;42.672;23.296;2023-05-22T05:46:05;94497.94;;;17.43;65.89
35892;BME280;21993;42.672;23.296;2023-05-22T05:48:31;94493.38;;;17.52;66.22
35892;BME280;21993;42.672;23.296;2023-05-22T05:50:57;94505.63;;;17.53;65.82
35892;BME280;21993;42.672;23.296;2023-05-22T05:53:22;94497.94;;;17.73;65.37
35892;BME280;21993;42.672;23.296;2023-05-22T05:55:47;94492.72;;;17.94;62.85
35892;BME280;21993;42.672;23.296;2023-05-22T05:58:13;94495.56;;;17.93;63.11
35892;BME280;21993;42.672;23.296;2023-05-22T06:00:38;94507.25;;;18.13;61.00
35892;BME280;21993;42.672;23.296;2023-05-22T06:03:06;94500.50;;;17.96;62.76
35892;BME280;21993;42.672;23.296;2023-05-22T06:05:32;94504.16;;;17.95;63.40
35892;BME280;21993;42.672;23.296;2023-05-22T06:07:57;94502.84;;;18.06;62.68
35892;BME280;21993;42.672;23.296;2023-05-22T06:10:23;94500.81;;;18.22;61.87
35892;BME280;21993;42.672;23.296;2023-05-22T06:12:48;94496.78;;;18.26;61.86
35892;BME280;21993;42.672;23.296;2023-05-22T06:15:14;94501.66;;;18.44;59.61
35892;BME280;21993;42.672;23.296;2023-05-22T06:17:39;94495.00;;;18.55;58.37
35892;BME280;21993;42.672;23.296;2023-05-22T06:20:05;94495.00;;;18.55;57.07
35892;BME280;21993;42.672;23.296;2023-05-22T06:22:31;94494.31;;;18.46;58.51
35892;BME280;21993;42.672;23.296;2023-05-22T06:24:57;94509.75;;;18.57;57.13
35892;BME280;21993;42.672;23.296;2023-05-22T06:27:23;94498.41;;;18.49;57.90
35892;BME280;21993;42.672;23.296;2023-05-22T06:29:51;94498.06;;;18.52;60.00
35892;BME280;21993;42.672;23.296;2023-05-22T06:32:17;94495.91;;;18.62;60.05
35892;BME280;21993;42.672;23.296;2023-05-22T06:34:45;94488.03;;;18.69;59.24
35892;BME280;21993;42.672;23.296;2023-05-22T06:37:11;94490.56;;;18.77;57.78
35892;BME280;21993;42.672;23.296;2023-05-22T06:39:37;94495.00;;;18.70;58.80
35892;BME280;21993;42.672;23.296;2023-05-22T06:42:03;94486.13;;;18.84;59.55
35892;BME280;21993;42.672;23.296;2023-05-22T06:44:28;94494.94;;;18.91;58.85
35892;BME280;21993;42.672;23.296;2023-05-22T06:46:53;94494.81;;;18.99;57.99
35892;BME280;21993;42.672;23.296;2023-05-22T06:49:19;94492.50;;;18.90;57.43
35892;BME280;21993;42.672;23.296;2023-05-22T06:51:45;94493.25;;;19.05;56.58
35892;BME280;21993;42.672;23.296;2023-05-22T06:54:11;94491.19;;;19.07;56.66
35892;BME280;21993;42.672;23.296;2023-05-22T06:56:38;94493.16;;;19.20;55.86
35892;BME280;21993;42.672;23.296;2023-05-22T06:59:04;94490.03;;;19.16;56.33
35892;BME280;21993;42.672;23.296;2023-05-22T07:01:29;94497.38;;;19.42;55.14
35892;BME280;21993;42.672;23.296;2023-05-22T07:03:56;94495.22;;;19.52;55.22
35892;BME280;21993;42.672;23.296;2023-05-22T07:06:22;94484.84;;;19.64;54.22
35892;BME280;21993;42.672;23.296;2023-05-22T07:08:49;94491.28;;;19.76;53.07
35892;BME280;21993;42.672;23.296;2023-05-22T07:11:14;94493.78;;;19.91;52.96
35892;BME280;21993;42.672;23.296;2023-05-22T07:13:40;94489.75;;;20.02;52.78
35892;BME280;21993;42.672;23.296;2023-05-22T07:16:06;94482.41;;;20.10;53.97
35892;BME280;21993;42.672;23.296;2023-05-22T07:18:32;94482.69;;;20.42;50.87
35892;BME280;21993;42.672;23.296;2023-05-22T07:20:57;94486.84;;;20.51;52.23
35892;BME280;21993;42.672;23.296;2023-05-22T07:23:23;94485.13;;;20.30;52.64
35892;BME280;21993;42.672;23.296;2023-05-22T07:25:48;94490.69;;;20.29;53.40
35892;BME280;21993;42.672;23.296;2023-05-22T07:28:14;94485.75;;;20.32;52.98
35892;BME280;21993;42.672;23.296;2023-05-22T07:30:39;94487.69;;;20.45;52.89
35892;BME280;21993;42.672;23.296;2023-05-22T07:33:05;94490.56;;;20.57;52.10
35892;BME280;21993;42.672;23.296;2023-05-22T07:35:30;94481.13;;;20.67;52.87
35892;BME280;21993;42.672;23.296;2023-05-22T07:37:56;94474.41;;;20.78;52.55
35892;BME280;21993;42.672;23.296;2023-05-22T07:40:21;94477.66;;;20.93;50.71
35892;BME280;21993;42.672;23.296;2023-05-22T07:42:47;94477.06;;;20.91;51.04
35892;BME280;21993;42.672;23.296;2023-05-22T07:45:12;94473.59;;;21.11;50.94
35892;BME280;21993;42.672;23.296;2023-05-22T07:47:37;94479.72;;;21.18;50.24
35892;BME280;21993;42.672;23.296;2023-05-22T07:50:03;94479.09;;;21.09;51.29
35892;BME280;21993;42.672;23.296;2023-05-22T07:52:29;94473.16;;;21.20;49.65
35892;BME280;21993;42.672;23.296;2023-05-22T07:54:57;94465.16;;;21.33;49.49
35892;BME280;21993;42.672;23.296;2023-05-22T07:57:23;94473.97;;;21.41;49.58
35892;BME280;21993;42.672;23.296;2023-05-22T07:59:49;94465.75;;;21.35;49.65
35892;BME280;21993;42.672;23.296;2023-05-22T08:02:17;94470.28;;;21.42;50.04
35892;BME280;21993;42.672;23.296;2023-05-22T08:04:42;94466.56;;;21.49;50.00
35892;BME280;21993;42.672;23.296;2023-05-22T08:07:08;94473.31;;;21.65;48.46
35892;BME280;21993;42.672;23.296;2023-05-22T08:09:34;94474.72;;;21.74;48.75
35892;BME280;21993;42.672;23.296;2023-05-22T08:11:59;94475.75;;;21.80;49.17
35892;BME280;21993;42.672;23.296;2023-05-22T08:14:25;94475.34;;;21.76;48.97
35892;BME280;21993;42.672;23.296;2023-05-22T08:16:50;94470.19;;;21.81;49.62
35892;BME280;21993;42.672;23.296;2023-05-22T08:19:16;94472.72;;;21.70;47.57
35892;BME280;21993;42.672;23.296;2023-05-22T08:21:41;94470.81;;;21.77;48.19
35892;BME280;21993;42.672;23.296;2023-05-22T08:24:07;94459.06;;;21.91;46.90
35892;BME280;21993;42.672;23.296;2023-05-22T08:26:32;94462.34;;;21.93;46.87
35892;BME280;21993;42.672;23.296;2023-05-22T08:29:01;94464.81;;;21.95;47.25
35892;BME280;21993;42.672;23.296;2023-05-22T08:31:26;94465.38;;;22.10;47.40
35892;BME280;21993;42.672;23.296;2023-05-22T08:33:53;94463.09;;;22.20;46.85
35892;BME280;21993;42.672;23.296;2023-05-22T08:36:26;94467.19;;;22.23;46.31
35892;BME280;21993;42.672;23.296;2023-05-22T08:38:52;94472.03;;;22.39;44.60
35892;BME280;21993;42.672;23.296;2023-05-22T08:41:17;94467.94;;;22.68;43.39
35892;BME280;21993;42.672;23.296;2023-05-22T08:43:42;94468.47;;;22.83;40.86
35892;BME280;21993;42.672;23.296;2023-05-22T08:46:08;94467.22;;;22.86;41.82
35892;BME280;21993;42.672;23.296;2023-05-22T08:48:34;94458.16;;;22.87;39.91
35892;BME280;21993;42.672;23.296;2023-05-22T08:51:04;94465.66;;;22.71;39.88
35892;BME280;21993;42.672;23.296;2023-05-22T08:53:34;94449.50;;;22.53;40.82
35892;BME280;21993;42.672;23.296;2023-05-22T08:56:01;94463.63;;;22.67;40.59
35892;BME280;21993;42.672;23.296;2023-05-22T08:58:27;94458.50;;;22.65;41.83
35892;BME280;21993;42.672;23.296;2023-05-22T09:00:53;94452.72;;;22.68;41.86
35892;BME280;21993;42.672;23.296;2023-05-22T09:03:20;94446.75;;;22.66;42.68
35892;BME280;21993;42.672;23.296;2023-05-22T09:05:47;94463.63;;;22.67;41.48
35892;BME280;21993;42.672;23.296;2023-05-22T09:08:13;94450.81;;;22.75;38.76
35892;BME280;21993;42.672;23.296;2023-05-22T09:10:39;94465.59;;;22.78;38.89
35892;BME280;21993;42.672;23.296;2023-05-22T09:13:07;94456.69;;;22.59;37.46
35892;BME280;21993;42.672;23.296;2023-05-22T09:15:34;94449.00;;;22.69;38.21
35892;BME280;21993;42.672;23.296;2023-05-22T09:18:01;94453.94;;;22.72;38.94
35892;BME280;21993;42.672;23.296;2023-05-22T09:20:27;94449.72;;;22.52;38.95
35892;BME280;21993;42.672;23.296;2023-05-22T09:22:52;94448.09;;;22.51;39.00
35892;BME280;21993;42.672;23.296;2023-05-22T09:25:19;94440.06;;;22.51;39.63
35892;BME280;21993;42.672;23.296;2023-05-22T09:27:46;94443.72;;;22.63;38.98
35892;BME280;21993;42.672;23.296;2023-05-22T09:30:15;94451.47;;;22.71;39.99
35892;BME280;21993;42.672;23.296;2023-05-22T09:32:41;94435.75;;;22.81;39.82
35892;BME280;21993;42.672;23.296;2023-05-22T09:35:07;94440.63;;;22.91;38.23
35892;BME280;21993;42.672;23.296;2023-05-22T09:37:33;94442.44;;;22.97;38.71
35892;BME280;21993;42.672;23.296;2023-05-22T09:40:03;94439.31;;;23.00;39.18
35892;BME280;21993;42.672;23.296;2023-05-22T09:42:32;94456.47;;;23.17;38.93
35892;BME280;21993;42.672;23.296;2023-05-22T09:45:02;94456.13;;;23.14;39.06
35892;BME280;21993;42.672;23.296;2023-05-22T09:47:27;94455.44;;;23.18;38.67
35892;BME280;21993;42.672;23.296;2023-05-22T09:49:56;94442.00;;;23.25;37.39
35892;BME280;21993;42.672;23.296;2023-05-22T09:52:23;94446.53;;;22.99;38.16
35892;BME280;21993;42.672;23.296;2023-05-22T09:54:53;94449.59;;;23.03;38.80
35892;BME280;21993;42.672;23.296;2023-05-22T09:57:20;94456.25;;;23.19;40.07
35892;BME280;21993;42.672;23.296;2023-05-22T09:59:50;94456.38;;;23.06;40.15
35892;BME280;21993;42.672;23.296;2023-05-22T10:02:22;94452.00;;;23.11;40.64
35892;BME280;21993;42.672;23.296;2023-05-22T10:04:48;94458.66;;;23.02;41.31
35892;BME280;21993;42.672;23.296;2023-05-22T10:07:17;94460.94;;;23.05;42.32
35892;BME280;21993;42.672;23.296;2023-05-22T10:09:47;94457.28;;;22.93;42.98
35892;BME280;21993;42.672;23.296;2023-05-22T10:12:16;94459.19;;;22.86;43.79
35892;BME280;21993;42.672;23.296;2023-05-22T10:14:44;94459.97;;;22.93;43.48
35892;BME280;21993;42.672;23.296;2023-05-22T10:17:10;94457.16;;;22.88;43.62
35892;BME280;21993;42.672;23.296;2023-05-22T10:19:36;94450.13;;;22.87;42.93
35892;BME280;21993;42.672;23.296;2023-05-22T10:22:03;94456.94;;;22.89;43.27
35892;BME280;21993;42.672;23.296;2023-05-22T10:24:30;94454.25;;;22.89;42.63
35892;BME280;21993;42.672;23.296;2023-05-22T10:26:56;94454.88;;;22.85;42.83
35892;BME280;21993;42.672;23.296;2023-05-22T10:29:32;94448.56;;;22.72;42.95
35892;BME280;21993;42.672;23.296;2023-05-22T10:32:26;94454.97;;;22.71;43.23
35892;BME280;21993;42.672;23.296;2023-05-22T10:40:33;94483.00;;;22.24;44.77
35892;BME280;21993;42.672;23.296;2023-05-22T10:43:01;94492.88;;;22.24;47.59
35892;BME280;21993;42.672;23.296;2023-05-22T10:45:27;94512.91;;;22.08;54.81
35892;BME280;21993;42.672;23.296;2023-05-22T10:48:07;94510.06;;;21.76;57.27
35892;BME280;21993;42.672;23.296;2023-05-22T10:50:34;94499.66;;;21.55;51.73
35892;BME280;21993;42.672;23.296;2023-05-22T10:53:25;94491.81;;;21.67;59.83
35892;BME280;21993;42.672;23.296;2023-05-22T10:55:55;94495.50;;;21.72;59.29
35892;BME280;21993;42.672;23.296;2023-05-22T10:58:32;94476.59;;;21.60;61.18
35892;BME280;21993;42.672;23.296;2023-05-22T11:01:18;94475.81;;;21.53;63.86
35892;BME280;21993;42.672;23.296;2023-05-22T11:06:43;94472.13;;;21.41;65.55
35892;BME280;21993;42.672;23.296;2023-05-22T11:12:27;94472.56;;;21.31;66.47
35892;BME280;21993;42.672;23.296;2023-05-22T11:14:58;94469.69;;;21.40;66.65
35892;BME280;21993;42.672;23.296;2023-05-22T11:17:53;94467.81;;;21.40;64.85
35892;BME280;21993;42.672;23.296;2023-05-22T11:20:21;94466.19;;;21.39;64.19
35892;BME280;21993;42.672;23.296;2023-05-22T11:22:50;94469.69;;;21.33;64.66
35892;BME280;21993;42.672;23.296;2023-05-22T11:25:20;94455.69;;;21.18;60.16
35892;BME280;21993;42.672;23.296;2023-05-22T11:27:47;94456.50;;;21.18;61.46
35892;BME280;21993;42.672;23.296;2023-05-22T11:30:13;94452.00;;;21.25;63.29
35892;BME280;21993;42.672;23.296;2023-05-22T11:32:41;94477.50;;;21.28;59.65
35892;BME280;21993;42.672;23.296;2023-05-22T11:35:14;94506.22;;;21.19;60.94
35892;BME280;21993;42.672;23.296;2023-05-22T11:37:40;94532.25;;;20.84;59.65
35892;BME280;21993;42.672;23.296;2023-05-22T11:40:06;94521.88;;;20.35;59.51
35892;BME280;21993;42.672;23.296;2023-05-22T11:42:32;94517.28;;;19.74;58.86
35892;BME280;21993;42.672;23.296;2023-05-22T11:44:58;94525.47;;;19.73;60.64
35892;BME280;21993;42.672;23.296;2023-05-22T11:47:26;94525.28;;;19.46;58.59
35892;BME280;21993;42.672;23.296;2023-05-22T11:49:53;94525.44;;;19.17;57.61
35892;BME280;21993;42.672;23.296;2023-05-22T11:52:18;94539.72;;;18.66;59.37
35892;BME280;21993;42.672;23.296;2023-05-22T11:54:48;94526.78;;;18.42;59.84
35892;BME280;21993;42.672;23.296;2023-05-22T11:57:13;94531.88;;;18.22;59.46
35892;BME280;21993;42.672;23.296;2023-05-22T11:59:43;94534.88;;;18.55;60.27
35892;BME280;21993;42.672;23.296;2023-05-22T12:02:08;94521.38;;;18.71;60.79
35892;BME280;21993;42.672;23.296;2023-05-22T12:04:36;94527.72;;;18.70;60.39
35892;BME280;21993;42.672;23.296;2023-05-22T12:07:02;94527.31;;;18.73;60.64
35892;BME280;21993;42.672;23.296;2023-05-22T12:09:27;94513.63;;;18.98;60.93
35892;BME280;21993;42.672;23.296;2023-05-22T12:11:56;94523.22;;;18.92;59.48
35892;BME280;21993;42.672;23.296;2023-05-22T12:14:29;94529.66;;;19.04;60.39
35892;BME280;21993;42.672;23.296;2023-05-22T12:16:58;94526.25;;;19.10;60.62
35892;BME280;21993;42.672;23.296;2023-05-22T12:19:25;94529.34;;;19.14;60.70
35892;BME280;21993;42.672;23.296;2023-05-22T12:21:52;94514.78;;;19.10;60.79
35892;BME280;21993;42.672;23.296;2023-05-22T12:24:17;94497.13;;;19.02;58.84
35892;BME280;21993;42.672;23.296;2023-05-22T12:26:51;94504.00;;;18.97;60.00
35892;BME280;21993;42.672;23.296;2023-05-22T12:29:17;94505.53;;;19.06;61.72
35892;BME280;21993;42.672;23.296;2023-05-22T12:31:43;94500.41;;;19.04;61.05
35892;BME280;21993;42.672;23.296;2023-05-22T12:34:10;94497.47;;;18.99;62.41
35892;BME280;21993;42.672;23.296;2023-05-22T12:36:41;94488.16;;;19.10;62.25
35892;BME280;21993;42.672;23.296;2023-05-22T12:39:10;94493.72;;;19.15;62.51
35892;BME280;21993;42.672;23.296;2023-05-22T12:41:36;94489.41;;;19.14;62.12
35892;BME280;21993;42.672;23.296;2023-05-22T12:44:02;94488.16;;;19.10;62.73
35892;BME280;21993;42.672;23.296;2023-05-22T12:46:31;94494.75;;;19.14;62.89
35892;BME280;21993;42.672;23.296;2023-05-22T12:48:58;94489.81;;;19.11;62.72
35892;BME280;21993;42.672;23.296;2023-05-22T12:51:28;94492.06;;;19.14;63.53
35892;BME280;21993;42.672;23.296;2023-05-22T12:53:55;94497.41;;;19.14;61.55
35892;BME280;21993;42.672;23.296;2023-05-22T12:56:21;94491.72;;;19.17;60.44
35892;BME280;21993;42.672;23.296;2023-05-22T12:58:46;94490.97;;;19.02;60.81
35892;BME280;21993;42.672;23.296;2023-05-22T13:01:12;94489.06;;;18.96;61.02
35892;BME280;21993;42.672;23.296;2023-05-22T13:03:37;94494.34;;;18.89;61.39
35892;BME280;21993;42.672;23.296;2023-05-22T13:06:03;94489.34;;;19.07;62.13
35892;BME280;21993;42.672;23.296;2023-05-22T13:08:28;94489.41;;;19.14;62.58
35892;BME280;21993;42.672;23.296;2023-05-22T13:10:54;94478.41;;;19.17;65.24
35892;BME280;21993;42.672;23.296;2023-05-22T13:13:19;94475.75;;;19.24;67.12
35892;BME280;21993;42.672;23.296;2023-05-22T13:15:44;94471.25;;;19.52;66.88
35892;BME280;21993;42.672;23.296;2023-05-22T13:18:10;94463.75;;;19.62;64.34